Time;durP1;ratioP1;P1;durP2;ratioP2;P2;SDS_P1;SDS_P2;PMS_P1;PMS_P2;Temp;Humidity;BMP_temperature;BMP_pressure;BME280_temperature;BME280_humidity;BME280_pressure;Samples;Min_cycle;Max_cycle;Signal;HPM_P1;HPM_P2
2021/09/22 00:00:19;;;;;;;24.33;19.13;;;;;;;16.69;51.37;96460.03;4988835;28;20058;-70
2021/09/22 00:02:44;;;;;;;25.88;21.67;;;;;;;16.70;51.19;96463.50;4989217;28;20042;-70
2021/09/22 00:05:12;;;;;;;19.08;17.13;;;;;;;16.69;51.18;96461.91;4989543;28;20045;-71
2021/09/22 00:07:37;;;;;;;23.42;20.33;;;;;;;16.61;51.23;96441.97;4991437;28;20129;-69
2021/09/22 00:10:09;;;;;;;29.33;19.98;;;;;;;16.82;50.99;96472.56;4988499;28;20567;-69
2021/09/22 00:12:34;;;;;;;23.57;16.73;;;;;;;16.70;51.17;96452.75;4981270;28;20419;-70
2021/09/22 00:15:00;;;;;;;19.38;17.48;;;;;;;16.52;51.10;96420.44;4989005;28;20041;-69
2021/09/22 00:17:25;;;;;;;21.38;17.52;;;;;;;16.75;51.28;96452.63;4989054;28;20424;-69
2021/09/22 00:19:50;;;;;;;18.58;16.55;;;;;;;16.75;51.23;96458.00;4989758;28;20026;-70
2021/09/22 00:22:16;;;;;;;19.75;17.23;;;;;;;16.79;51.26;96453.59;4988697;28;20034;-69
2021/09/22 00:24:42;;;;;;;19.40;17.58;;;;;;;16.92;51.12;96468.81;4976279;28;20035;-69
2021/09/22 00:27:07;;;;;;;17.83;16.13;;;;;;;16.89;51.09;96450.63;4969882;28;20074;-69
2021/09/22 00:29:32;;;;;;;19.40;17.42;;;;;;;17.02;50.57;96457.75;4975783;28;20136;-69
2021/09/22 00:31:58;;;;;;;20.48;18.17;;;;;;;16.96;50.59;96442.91;4995458;28;20018;-70
2021/09/22 00:34:24;;;;;;;17.73;16.13;;;;;;;17.09;50.58;96455.41;4988539;28;20062;-69
2021/09/22 00:36:49;;;;;;;16.20;14.63;;;;;;;17.01;50.62;96437.38;4989009;28;20576;-70
2021/09/22 00:39:16;;;;;;;16.90;15.30;;;;;;;17.04;50.29;96419.81;4983650;28;20031;-70
2021/09/22 00:41:42;;;;;;;16.65;15.15;;;;;;;17.36;50.33;96451.66;4974296;28;20065;-69
2021/09/22 00:44:08;;;;;;;14.55;13.18;;;;;;;17.49;49.66;96471.44;4990154;28;20022;-70
2021/09/22 00:46:33;;;;;;;19.27;13.60;;;;;;;17.58;49.91;96464.16;4988818;28;20396;-69
2021/09/22 00:48:59;;;;;;;13.77;12.45;;;;;;;17.13;49.53;96378.41;4988423;28;20112;-69
2021/09/22 00:51:24;;;;;;;15.68;14.27;;;;;;;17.70;49.17;96451.97;4988495;28;20053;-69
2021/09/22 00:53:50;;;;;;;13.45;12.35;;;;;;;17.72;49.04;96445.19;4988322;28;20121;-70
2021/09/22 00:56:16;;;;;;;13.68;12.48;;;;;;;17.82;48.69;96439.50;4988510;28;20567;-69
2021/09/22 00:58:41;;;;;;;13.57;12.18;;;;;;;17.88;48.54;96442.81;5003768;23;20039;-71
2021/09/22 01:01:07;;;;;;;12.93;11.73;;;;;;;17.89;48.42;96444.41;4988372;28;20431;-72
2021/09/22 01:03:33;;;;;;;13.55;12.32;;;;;;;17.95;48.48;96445.81;4988531;28;20030;-72
2021/09/22 01:06:00;;;;;;;15.05;13.60;;;;;;;18.00;48.00;96444.88;4989021;28;20069;-72
2021/09/22 01:08:31;;;;;;;13.40;12.18;;;;;;;17.97;48.26;96449.00;4988601;28;20114;-71
2021/09/22 01:10:57;;;;;;;15.10;13.70;;;;;;;18.00;48.09;96456.41;4989823;28;20084;-72
2021/09/22 01:13:23;;;;;;;14.90;13.70;;;;;;;17.53;48.43;96442.81;4988258;28;20740;-72
2021/09/22 01:15:49;;;;;;;16.45;14.80;;;;;;;17.58;48.55;96455.31;4988812;28;20065;-72
2021/09/22 01:18:20;;;;;;;14.27;13.18;;;;;;;17.49;48.87;96459.88;4987392;28;20128;-71
2021/09/22 01:20:49;;;;;;;14.70;13.20;;;;;;;17.61;49.07;96450.09;4988347;28;20081;-72
2021/09/22 01:23:18;;;;;;;14.10;12.75;;;;;;;17.72;48.94;96450.56;4988636;28;20019;-71
2021/09/22 01:25:46;;;;;;;15.98;14.68;;;;;;;17.81;48.60;96448.69;4989171;28;20726;-71
2021/09/22 01:28:15;;;;;;;14.75;13.50;;;;;;;16.86;49.98;96449.34;4988335;28;20026;-71
2021/09/22 01:30:41;;;;;;;15.18;13.32;;;;;;;16.61;51.12;96447.34;4987643;28;20046;-71
2021/09/22 01:33:10;;;;;;;15.43;13.98;;;;;;;16.09;52.06;96455.94;4986808;28;20031;-71
2021/09/22 01:35:38;;;;;;;15.93;14.43;;;;;;;15.95;52.69;96444.47;4988336;28;20041;-71
2021/09/22 01:38:06;;;;;;;16.92;15.32;;;;;;;15.67;53.35;96451.84;4990219;28;20139;-71
2021/09/22 01:40:32;;;;;;;17.40;15.90;;;;;;;15.45;53.95;96457.94;4985824;28;20467;-71
2021/09/22 01:42:58;;;;;;;18.48;16.63;;;;;;;14.88;55.58;96444.16;4987662;28;20026;-71
2021/09/22 01:45:23;;;;;;;19.52;17.70;;;;;;;15.79;53.56;96443.25;4988044;28;20542;-72
2021/09/22 01:47:49;;;;;;;19.77;17.30;;;;;;;16.22;52.51;96431.97;4988207;28;20034;-71
2021/09/22 01:50:18;;;;;;;17.95;16.25;;;;;;;16.27;52.14;96424.59;4987641;28;20114;-71
2021/09/22 01:52:46;;;;;;;19.15;17.25;;;;;;;16.34;51.78;96432.22;4989616;28;20022;-72
2021/09/22 01:55:13;;;;;;;19.98;17.88;;;;;;;16.33;51.56;96434.13;4988169;28;20041;-72
2021/09/22 01:57:38;;;;;;;23.08;19.73;;;;;;;16.26;50.85;96436.44;4975350;28;20110;-71
2021/09/22 02:00:05;;;;;;;20.73;18.58;;;;;;;16.28;51.47;96434.25;4982782;28;20620;-72
2021/09/22 02:02:31;;;;;;;20.17;17.83;;;;;;;16.17;51.94;96416.78;4991654;28;20034;-71
2021/09/22 02:04:58;;;;;;;24.42;19.42;;;;;;;16.09;51.29;96412.97;5009327;28;20088;-71
2021/09/22 02:07:23;;;;;;;19.92;17.83;;;;;;;16.23;51.95;96433.59;5007347;28;20038;-72
2021/09/22 02:09:49;;;;;;;21.58;18.40;;;;;;;16.18;51.52;96439.88;5005711;28;20038;-72
2021/09/22 02:12:14;;;;;;;20.65;18.48;;;;;;;16.03;51.57;96421.47;4981029;28;20078;-71
2021/09/22 02:14:40;;;;;;;22.48;19.20;;;;;;;16.18;51.64;96452.50;4972495;28;20038;-73
2021/09/22 02:17:06;;;;;;;27.85;22.55;;;;;;;16.15;51.79;96461.16;4989666;28;20018;-71
2021/09/22 02:19:31;;;;;;;21.27;19.02;;;;;;;16.10;51.21;96446.78;5006488;28;20058;-72
2021/09/22 02:21:57;;;;;;;21.48;18.08;;;;;;;16.05;51.22;96446.09;5006142;28;20085;-71
2021/09/22 02:24:22;;;;;;;26.08;20.40;;;;;;;16.02;51.63;96449.38;5005824;28;20042;-71
2021/09/22 02:26:48;;;;;;;22.05;19.48;;;;;;;16.01;51.35;96445.13;4995206;28;20150;-71
2021/09/22 02:29:14;;;;;;;29.42;22.33;;;;;;;15.99;51.69;96448.13;4986701;28;20037;-71
2021/09/22 02:31:39;;;;;;;32.28;23.23;;;;;;;15.92;51.52;96437.03;4988008;28;20369;-71
2021/09/22 02:34:05;;;;;;;27.70;22.40;;;;;;;15.93;51.52;96460.09;4987419;28;20192;-71
2021/09/22 02:36:30;;;;;;;27.75;21.15;;;;;;;15.86;52.05;96448.97;5002744;28;20042;-71
2021/09/22 02:38:55;;;;;;;24.63;21.50;;;;;;;15.87;51.54;96458.63;4987137;28;20169;-72
2021/09/22 02:41:21;;;;;;;28.90;21.75;;;;;;;15.81;51.51;96449.88;4985616;28;20041;-71
2021/09/22 02:43:46;;;;;;;33.22;21.63;;;;;;;15.78;51.62;96445.16;5005591;28;20018;-72
2021/09/22 02:46:12;;;;;;;27.75;21.40;;;;;;;15.69;51.90;96441.59;4999134;28;20041;-71
2021/09/22 02:48:37;;;;;;;30.48;22.02;;;;;;;15.74;51.89;96454.09;4990667;28;20109;-71
2021/09/22 02:51:03;;;;;;;20.40;18.30;;;;;;;15.73;51.49;96456.00;4990031;28;20643;-72
2021/09/22 02:53:30;;;;;;;20.83;18.63;;;;;;;15.66;51.50;96446.78;4990093;28;20049;-71
2021/09/22 02:55:56;;;;;;;28.63;21.20;;;;;;;15.68;51.87;96466.84;4992533;28;20023;-72
2021/09/22 02:58:21;;;;;;;21.15;19.00;;;;;;;15.66;51.68;96463.69;4990599;28;20039;-71
2021/09/22 03:00:48;;;;;;;20.38;18.17;;;;;;;15.59;51.91;96458.69;4998247;28;20027;-71
2021/09/22 03:03:14;;;;;;;20.40;18.25;;;;;;;15.57;51.99;96462.78;5007933;28;20056;-71
2021/09/22 03:05:39;;;;;;;31.00;22.80;;;;;;;15.55;52.26;96463.06;5010387;28;20511;-71
2021/09/22 03:08:05;;;;;;;28.63;21.38;;;;;;;15.41;52.11;96442.78;5012256;28;20029;-71
2021/09/22 03:10:30;;;;;;;34.47;23.40;;;;;;;15.44;52.49;96453.69;5009456;28;20096;-72
2021/09/22 03:12:56;;;;;;;30.10;22.10;;;;;;;15.41;52.39;96466.91;4989105;28;20077;-71
2021/09/22 03:15:21;;;;;;;35.92;22.48;;;;;;;15.37;52.39;96469.41;4998562;28;20045;-71
2021/09/22 03:17:47;;;;;;;22.23;18.30;;;;;;;15.24;52.37;96452.22;4990410;28;20125;-71
2021/09/22 03:20:13;;;;;;;32.50;21.23;;;;;;;15.28;52.58;96452.44;4989897;28;20111;-72
2021/09/22 03:22:38;;;;;;;23.77;20.17;;;;;;;14.94;53.64;96459.03;4990881;28;20412;-71
2021/09/22 03:25:06;;;;;;;23.52;19.63;;;;;;;15.15;53.26;96469.31;4989100;28;20069;-71
2021/09/22 03:27:31;;;;;;;33.60;22.55;;;;;;;15.17;52.90;96457.22;4988384;28;20050;-71
2021/09/22 03:29:56;;;;;;;39.33;23.13;;;;;;;15.21;52.76;96476.19;4989845;28;20488;-72
2021/09/22 03:32:22;;;;;;;22.52;18.33;;;;;;;15.18;52.61;96468.72;4998440;28;20073;-72
2021/09/22 03:34:47;;;;;;;31.25;23.20;;;;;;;15.11;53.13;96463.78;4991856;28;20030;-71
2021/09/22 03:37:13;;;;;;;31.98;23.02;;;;;;;15.10;52.77;96470.25;4988891;28;20096;-71
2021/09/22 03:39:38;;;;;;;34.13;24.00;;;;;;;15.05;52.69;96465.00;4988102;28;20042;-70
2021/09/22 03:42:04;;;;;;;35.88;23.42;;;;;;;15.09;52.80;96480.16;4989746;28;20549;-71
2021/09/22 03:44:29;;;;;;;22.25;19.63;;;;;;;15.08;52.71;96475.88;4993205;28;20041;-71
2021/09/22 03:46:55;;;;;;;31.27;20.67;;;;;;;15.13;52.85;96485.72;5003514;28;20033;-71
2021/09/22 03:49:21;;;;;;;27.10;21.25;;;;;;;15.11;53.10;96479.88;5007674;28;20073;-71
2021/09/22 03:51:47;;;;;;;30.42;22.35;;;;;;;15.10;53.00;96475.59;5009479;28;20041;-71
2021/09/22 03:54:12;;;;;;;27.80;22.05;;;;;;;15.06;52.94;96479.97;5009034;28;20045;-71
2021/09/22 03:56:38;;;;;;;26.92;21.15;;;;;;;15.04;53.07;96476.78;5002301;28;20125;-71
2021/09/22 03:59:03;;;;;;;32.90;22.45;;;;;;;15.00;53.16;96479.28;4991180;28;20113;-71
2021/09/22 04:01:29;;;;;;;36.80;24.45;;;;;;;14.99;52.75;96469.63;4997740;28;20109;-71
2021/09/22 04:03:54;;;;;;;36.88;24.45;;;;;;;15.01;53.05;96485.44;4989402;28;20073;-71
2021/09/22 04:06:19;;;;;;;46.10;26.70;;;;;;;14.90;53.12;96473.34;4989780;28;20488;-71
2021/09/22 04:08:45;;;;;;;40.67;24.50;;;;;;;14.85;52.81;96462.72;4989101;28;20053;-70
2021/09/22 04:11:10;;;;;;;44.10;27.40;;;;;;;14.79;53.31;96456.66;4987736;28;20041;-71
2021/09/22 04:13:36;;;;;;;33.13;24.38;;;;;;;14.80;53.40;96456.38;4991044;28;20555;-71
2021/09/22 04:16:02;;;;;;;25.50;21.40;;;;;;;14.80;53.31;96453.69;4997435;28;20034;-71
2021/09/22 04:18:28;;;;;;;26.35;21.90;;;;;;;14.88;53.73;96462.91;4989329;28;20042;-70
2021/09/22 04:20:54;;;;;;;40.03;26.20;;;;;;;14.87;53.54;96464.00;4988841;28;20042;-71
2021/09/22 04:23:19;;;;;;;33.28;22.83;;;;;;;14.86;53.03;96473.13;4989174;28;20409;-70
2021/09/22 04:25:45;;;;;;;37.58;25.45;;;;;;;14.79;53.08;96464.69;4991391;28;20037;-75
2021/09/22 04:28:10;;;;;;;30.70;23.08;;;;;;;14.80;52.95;96471.66;4989241;28;20050;-76
2021/09/22 04:30:36;;;;;;;32.15;23.02;;;;;;;14.72;53.30;96459.72;4990168;28;20038;-77
2021/09/22 04:33:02;;;;;;;28.92;21.05;;;;;;;14.68;53.46;96455.28;4990022;28;20042;-74
2021/09/22 04:35:28;;;;;;;36.75;23.70;;;;;;;14.72;53.21;96462.41;4990234;28;20476;-75
2021/09/22 04:37:54;;;;;;;37.90;25.88;;;;;;;14.69;53.13;96457.66;4992228;28;20042;-76
2021/09/22 04:40:19;;;;;;;33.50;23.40;;;;;;;14.68;53.22;96455.28;4990140;28;20093;-76
2021/09/22 04:42:45;;;;;;;26.38;21.40;;;;;;;14.64;53.50;96460.44;4988886;28;20043;-76
2021/09/22 04:45:10;;;;;;;36.55;25.67;;;;;;;14.61;53.22;96453.00;4990750;28;20034;-77
2021/09/22 04:47:37;;;;;;;32.75;23.73;;;;;;;14.57;53.29;96457.34;5009264;28;20467;-76
2021/09/22 04:50:05;;;;;;;30.13;21.58;;;;;;;14.62;53.40;96469.84;5010595;28;20026;-76
2021/09/22 04:52:30;;;;;;;30.15;21.92;;;;;;;14.55;53.04;96465.69;5009073;28;20038;-76
2021/09/22 04:54:56;;;;;;;28.73;21.17;;;;;;;14.51;53.18;96453.97;5008956;28;20164;-73
2021/09/22 04:57:21;;;;;;;31.95;22.15;;;;;;;14.61;53.75;96473.63;4997397;28;20038;-77
2021/09/22 04:59:46;;;;;;;31.88;22.33;;;;;;;14.51;53.41;96462.00;4993855;28;20692;-77
2021/09/22 05:02:12;;;;;;;30.42;21.77;;;;;;;14.52;53.03;96468.94;5000808;28;20057;-72
2021/09/22 05:04:37;;;;;;;36.42;23.40;;;;;;;14.57;52.92;96484.91;5010035;28;20034;-72
2021/09/22 05:07:03;;;;;;;30.80;20.88;;;;;;;14.57;53.04;96476.09;5008386;28;20038;-74
2021/09/22 05:09:28;;;;;;;36.05;24.52;;;;;;;14.61;52.86;96481.66;5007871;28;20488;-71
2021/09/22 05:11:54;;;;;;;28.63;21.17;;;;;;;14.57;52.70;96476.88;5001473;28;20038;-73
2021/09/22 05:14:20;;;;;;;28.42;21.33;;;;;;;14.57;52.90;96468.84;4988751;28;20022;-72
2021/09/22 05:16:46;;;;;;;35.95;24.00;;;;;;;14.64;52.94;96489.91;4990129;28;20046;-73
2021/09/22 05:19:11;;;;;;;30.75;22.98;;;;;;;14.59;52.47;96481.16;4987116;28;20062;-78
2021/09/22 05:21:37;;;;;;;42.92;24.70;;;;;;;14.62;52.69;96481.34;4987187;28;20046;-72
2021/09/22 05:24:02;;;;;;;34.65;22.63;;;;;;;14.55;52.49;96483.63;4988194;28;20054;-73
2021/09/22 05:26:28;;;;;;;25.17;20.92;;;;;;;14.67;52.73;96496.53;4988151;28;20496;-76
2021/09/22 05:28:53;;;;;;;34.35;23.17;;;;;;;14.70;52.45;96494.06;4989668;28;20110;-78
2021/09/22 05:31:18;;;;;;;23.63;20.48;;;;;;;14.74;52.60;96491.56;4988306;28;20065;-75
2021/09/22 05:33:44;;;;;;;32.92;23.73;;;;;;;14.76;52.22;96478.69;4988179;28;20662;-73
2021/09/22 05:36:09;;;;;;;32.55;23.50;;;;;;;14.86;52.21;96494.56;4988508;28;20062;-73
2021/09/22 05:38:34;;;;;;;29.05;21.52;;;;;;;14.88;52.34;96484.34;4988180;28;20069;-73
2021/09/22 05:41:00;;;;;;;34.10;22.98;;;;;;;14.98;52.07;96499.41;4990285;28;20059;-74
2021/09/22 05:43:25;;;;;;;22.95;18.90;;;;;;;15.04;52.49;96493.66;4987278;28;20411;-73
2021/09/22 05:45:51;;;;;;;25.85;18.48;;;;;;;15.17;52.34;96493.94;4988294;28;20030;-76
2021/09/22 05:48:16;;;;;;;23.10;19.02;;;;;;;15.31;51.69;96489.38;4987968;28;20052;-74
2021/09/22 05:50:41;;;;;;;23.38;18.75;;;;;;;15.39;52.04;96494.00;4987356;28;20101;-74
2021/09/22 05:53:07;;;;;;;22.58;16.52;;;;;;;15.49;51.36;96483.06;4989632;28;20109;-73
2021/09/22 05:55:32;;;;;;;18.52;14.95;;;;;;;15.61;51.32;96485.22;4988153;28;20085;-73
2021/09/22 05:57:58;;;;;;;17.42;14.90;;;;;;;15.76;50.98;96489.47;4987869;28;20045;-73
2021/09/22 06:00:23;;;;;;;19.08;17.05;;;;;;;15.87;51.04;96498.88;4987686;28;20121;-73
2021/09/22 06:02:48;;;;;;;21.90;18.13;;;;;;;15.99;50.60;96496.44;4987508;28;20043;-73
2021/09/22 06:05:14;;;;;;;26.70;18.83;;;;;;;16.08;50.41;96496.50;4988417;28;20542;-74
2021/09/22 06:07:39;;;;;;;20.05;16.85;;;;;;;16.26;50.63;96502.75;4990135;28;20105;-73
2021/09/22 06:10:05;;;;;;;22.45;16.77;;;;;;;16.38;50.14;96500.31;4987269;28;20066;-74
2021/09/22 06:12:31;;;;;;;18.65;16.55;;;;;;;16.48;49.87;96489.31;4987410;28;20062;-74
2021/09/22 06:14:56;;;;;;;17.20;15.52;;;;;;;16.70;49.40;96491.16;4987659;28;20528;-73
2021/09/22 06:17:22;;;;;;;25.63;17.70;;;;;;;16.85;49.32;96492.66;4988136;28;20026;-76
2021/09/22 06:19:47;;;;;;;19.35;17.33;;;;;;;16.95;49.04;96480.84;4992778;28;20040;-73
2021/09/22 06:22:12;;;;;;;21.02;18.27;;;;;;;17.21;48.80;96494.34;4990062;28;20105;-73
2021/09/22 06:24:38;;;;;;;18.48;16.65;;;;;;;17.31;48.31;96492.16;4990025;28;20134;-73
2021/09/22 06:27:03;;;;;;;18.40;16.08;;;;;;;17.46;48.10;96493.59;4991447;28;20049;-73
2021/09/22 06:29:29;;;;;;;17.27;15.68;;;;;;;17.54;47.77;96486.63;4991126;28;20070;-73
2021/09/22 06:31:55;;;;;;;20.75;18.55;;;;;;;17.62;47.52;96481.28;5008813;28;20059;-72
2021/09/22 06:34:21;;;;;;;22.10;16.35;;;;;;;17.72;47.33;96485.56;4991184;28;20039;-74
2021/09/22 06:36:46;;;;;;;20.70;17.17;;;;;;;17.78;47.07;96481.63;4989798;28;20428;-77
2021/09/22 06:39:12;;;;;;;22.30;16.73;;;;;;;17.76;46.79;96467.69;4990484;28;20031;-75
2021/09/22 06:41:37;;;;;;;22.50;17.77;;;;;;;17.93;46.61;96491.91;4991870;28;20049;-74
2021/09/22 06:44:03;;;;;;;19.50;17.55;;;;;;;17.94;46.76;96481.94;4992325;28;20030;-74
2021/09/22 06:46:28;;;;;;;20.17;18.13;;;;;;;18.03;46.64;96488.09;4991630;28;20651;-73
2021/09/22 06:48:53;;;;;;;18.17;16.35;;;;;;;18.10;46.45;96488.41;5005745;28;20150;-75
2021/09/22 06:51:19;;;;;;;20.42;17.30;;;;;;;17.36;46.35;96515.44;4991462;28;20085;-75
2021/09/22 06:53:45;;;;;;;24.58;18.27;;;;;;;17.63;46.44;96499.00;4991069;28;20030;-80
2021/09/22 06:56:11;;;;;;;23.88;17.17;;;;;;;17.79;45.13;96501.25;4994439;28;20058;-72
2021/09/22 06:58:36;;;;;;;21.15;15.90;;;;;;;17.36;46.67;96505.47;4990111;28;20125;-72
2021/09/22 07:01:02;;;;;;;21.55;15.50;;;;;;;16.99;47.27;96514.03;4990088;28;20037;-75
2021/09/22 07:03:27;;;;;;;19.15;16.60;;;;;;;17.54;45.76;96508.16;4990079;28;20073;-73
2021/09/22 07:05:53;;;;;;;22.77;16.05;;;;;;;17.32;45.42;96507.19;4989097;28;20050;-73
2021/09/22 07:08:19;;;;;;;20.17;16.73;;;;;;;17.57;44.95;96497.56;4990552;28;20026;-73
2021/09/22 07:10:45;;;;;;;19.70;17.02;;;;;;;17.77;45.30;96511.56;4991847;28;20033;-72
2021/09/22 07:13:10;;;;;;;21.75;16.80;;;;;;;17.73;44.04;96510.59;4990910;28;20046;-82
2021/09/22 07:15:36;;;;;;;18.42;15.85;;;;;;;17.01;44.58;96484.97;4992718;28;20520;-82
2021/09/22 07:18:02;;;;;;;17.55;15.73;;;;;;;17.00;45.16;96521.03;4993484;28;20041;-83
2021/09/22 07:20:27;;;;;;;20.10;15.57;;;;;;;16.40;46.58;96530.34;4990963;28;20169;-82
2021/09/22 07:22:53;;;;;;;18.42;15.65;;;;;;;17.47;44.84;96529.38;4975193;28;20023;-80
2021/09/22 07:25:19;;;;;;;22.50;15.02;;;;;;;17.24;44.29;96525.97;4972921;28;20067;-81
2021/09/22 07:27:44;;;;;;;17.45;14.20;;;;;;;17.65;44.57;96522.88;4987243;28;20047;-80
2021/09/22 07:30:13;;;;;;;21.88;15.82;;;;;;;17.08;45.97;96526.41;4977891;28;20039;-75
2021/09/22 07:32:40;;;;;;;16.40;14.73;;;;;;;17.23;45.64;96527.09;4986824;28;20026;-80
2021/09/22 07:35:05;;;;;;;16.88;15.38;;;;;;;16.62;45.59;96511.50;5012805;28;20030;-77
2021/09/22 07:37:31;;;;;;;15.70;14.23;;;;;;;16.02;45.98;96522.66;5010332;28;20061;-77
2021/09/22 07:39:56;;;;;;;18.33;14.55;;;;;;;16.59;45.62;96522.06;5009129;28;20038;-78
2021/09/22 07:42:21;;;;;;;16.33;14.68;;;;;;;17.84;43.80;96520.72;5004153;28;20070;-75
2021/09/22 07:44:49;;;;;;;14.77;13.48;;;;;;;17.49;43.85;96524.44;4985185;28;20378;-74
2021/09/22 07:47:16;;;;;;;14.95;13.50;;;;;;;17.00;44.10;96527.19;4971334;28;20019;-73
2021/09/22 07:49:43;;;;;;;15.68;14.20;;;;;;;17.40;43.23;96527.13;4992052;28;20057;-85
2021/09/22 07:52:10;;;;;;;17.13;13.77;;;;;;;17.75;43.32;96522.59;4990217;28;20045;-73
2021/09/22 07:54:37;;;;;;;14.15;12.23;;;;;;;16.76;43.61;96532.94;4990736;28;20062;-76
2021/09/22 07:57:04;;;;;;;16.65;12.93;;;;;;;17.75;42.54;96525.31;4988718;28;20050;-74
2021/09/22 07:59:30;;;;;;;14.30;12.00;;;;;;;17.63;40.64;96522.41;4972794;28;20050;-74
2021/09/22 08:01:58;;;;;;;13.10;12.00;;;;;;;17.81;41.44;96524.06;4991814;28;20672;-75
2021/09/22 08:04:25;;;;;;;14.90;13.40;;;;;;;17.98;41.66;96520.56;4989841;28;20062;-73
2021/09/22 08:06:50;;;;;;;13.32;12.18;;;;;;;18.47;40.58;96536.50;4989839;28;20035;-75
2021/09/22 08:09:16;;;;;;;13.07;11.98;;;;;;;17.26;41.23;96513.03;4989433;28;20463;-73
2021/09/22 08:11:42;;;;;;;15.75;12.05;;;;;;;18.13;40.86;96520.09;4990114;28;20077;-72
2021/09/22 08:14:08;;;;;;;12.00;10.75;;;;;;;18.60;40.11;96538.22;4990841;28;20042;-74
2021/09/22 08:16:33;;;;;;;11.55;10.65;;;;;;;18.63;37.85;96530.31;4989365;28;20045;-73
2021/09/22 08:18:58;;;;;;;15.20;10.40;;;;;;;17.91;39.76;96531.81;4989278;28;20035;-71
2021/09/22 08:21:24;;;;;;;11.73;10.63;;;;;;;17.72;39.07;96536.69;5004760;28;20048;-71
2021/09/22 08:23:49;;;;;;;10.75;9.63;;;;;;;17.02;39.64;96532.25;4988098;28;20508;-74
2021/09/22 08:26:14;;;;;;;11.70;10.60;;;;;;;17.86;38.81;96507.75;4989311;28;20062;-72
2021/09/22 08:28:40;;;;;;;11.70;10.70;;;;;;;17.89;39.33;96504.41;4970957;28;20023;-78
2021/09/22 08:31:06;;;;;;;11.80;9.60;;;;;;;18.31;38.87;96520.06;4968573;28;20555;-75
2021/09/22 08:33:31;;;;;;;11.27;10.27;;;;;;;18.51;39.00;96535.53;4996571;28;20035;-76
2021/09/22 08:35:57;;;;;;;10.93;10.00;;;;;;;18.86;38.92;96540.88;4990025;28;20061;-76
2021/09/22 08:38:22;;;;;;;12.60;9.82;;;;;;;19.46;37.60;96520.91;4989799;28;20025;-76
2021/09/22 08:40:47;;;;;;;10.30;9.38;;;;;;;19.96;36.66;96530.91;4991229;28;20046;-79
2021/09/22 08:43:13;;;;;;;11.23;9.70;;;;;;;20.50;36.24;96531.72;4980075;28;20081;-76
2021/09/22 08:45:39;;;;;;;10.10;9.27;;;;;;;20.11;36.10;96524.88;4970810;28;20046;-78
2021/09/22 08:48:05;;;;;;;10.27;9.07;;;;;;;20.34;35.49;96511.81;4978540;28;20027;-77
2021/09/22 08:50:31;;;;;;;9.02;8.32;;;;;;;20.24;34.91;96523.81;4990021;28;20138;-78
2021/09/22 08:52:56;;;;;;;8.88;8.10;;;;;;;20.27;34.02;96516.97;4990722;28;20480;-77
2021/09/22 08:55:21;;;;;;;9.48;8.02;;;;;;;18.38;35.03;96520.38;4973087;28;20481;-77
2021/09/22 08:57:47;;;;;;;9.68;8.10;;;;;;;18.51;35.71;96532.06;4983834;28;20544;-79
2021/09/22 09:00:14;;;;;;;9.20;8.30;;;;;;;19.72;33.95;96526.97;4990356;28;20193;-80
2021/09/22 09:02:42;;;;;;;8.98;8.27;;;;;;;20.17;33.41;96523.59;4988922;28;20460;-77
2021/09/22 09:05:11;;;;;;;9.40;8.50;;;;;;;18.67;35.06;96520.44;4991812;28;20030;-77
2021/09/22 09:07:52;;;;;;;9.60;8.05;;;;;;;19.47;33.75;96511.69;4989378;28;20059;-78
2021/09/22 09:10:22;;;;;;;8.77;7.97;;;;;;;20.38;33.82;96520.06;4988622;28;20082;-78
2021/09/22 09:13:03;;;;;;;9.30;8.48;;;;;;;19.67;33.95;96510.97;4984887;28;20493;-78
2021/09/22 09:15:38;;;;;;;8.83;8.10;;;;;;;20.43;33.42;96511.75;4969192;28;20121;-78
2021/09/22 09:18:11;;;;;;;7.93;7.22;;;;;;;19.13;34.62;96524.25;4977733;28;20089;-76
2021/09/22 09:20:38;;;;;;;8.15;7.35;;;;;;;18.16;36.54;96532.91;4988580;28;20425;-75
2021/09/22 09:23:06;;;;;;;8.73;8.02;;;;;;;19.67;34.86;96531.75;4991566;28;20038;-78
2021/09/22 09:25:44;;;;;;;9.55;7.90;;;;;;;19.98;34.10;96517.88;4990550;28;20113;-78
2021/09/22 09:28:17;;;;;;;7.82;7.22;;;;;;;20.04;34.36;96519.25;4989825;28;20030;-78
2021/09/22 09:30:46;;;;;;;8.57;7.80;;;;;;;19.04;35.78;96520.00;4989558;28;20522;-78
2021/09/22 09:33:41;;;;;;;9.60;7.47;;;;;;;18.23;36.91;96513.59;4990358;28;20432;-79
2021/09/22 09:36:25;;;;;;;7.20;6.60;;;;;;;19.64;35.55;96517.00;4990175;28;20031;-77
2021/09/22 09:39:04;;;;;;;7.57;6.22;;;;;;;19.32;35.84;96515.75;4989096;28;20046;-77
2021/09/22 09:41:31;;;;;;;8.93;6.35;;;;;;;18.84;36.18;96518.84;4988635;28;20039;-78
2021/09/22 09:43:59;;;;;;;7.03;6.25;;;;;;;20.18;35.12;96508.16;4991251;28;20018;-78
2021/09/22 09:46:28;;;;;;;7.22;6.22;;;;;;;19.89;35.36;96506.34;4989252;28;20055;-77
2021/09/22 09:49:14;;;;;;;5.32;4.85;;;;;;;20.21;34.84;96508.25;4996430;28;20038;-78
2021/09/22 09:51:50;;;;;;;5.88;5.35;;;;;;;20.03;34.82;96509.56;4988771;28;20050;-80
2021/09/22 09:54:24;;;;;;;6.47;5.88;;;;;;;19.62;36.41;96511.16;4991371;28;20408;-76
2021/09/22 09:56:53;;;;;;;6.72;6.22;;;;;;;20.86;34.12;96505.09;4992533;28;20132;-77
2021/09/22 09:59:20;;;;;;;7.53;5.65;;;;;;;21.27;33.53;96506.78;4989779;28;20022;-76
2021/09/22 10:01:47;;;;;;;5.20;4.90;;;;;;;20.16;35.15;96508.47;4975005;28;20492;-76
2021/09/22 10:04:16;;;;;;;4.65;4.30;;;;;;;20.77;33.90;96478.13;4988603;28;20061;-76
2021/09/22 10:06:43;;;;;;;5.53;5.03;;;;;;;19.75;35.88;96506.59;4990528;28;20244;-74
2021/09/22 10:09:08;;;;;;;5.38;4.90;;;;;;;20.60;34.39;96500.75;4992071;28;20035;-77
2021/09/22 10:11:35;;;;;;;5.00;4.60;;;;;;;20.07;34.86;96501.59;4992566;28;20031;-75
2021/09/22 10:14:03;;;;;;;6.10;4.30;;;;;;;19.28;36.78;96471.66;4980105;28;20026;-74
2021/09/22 10:16:29;;;;;;;3.50;3.20;;;;;;;19.22;36.62;96491.84;4991580;28;20030;-75
2021/09/22 10:18:57;;;;;;;3.70;3.40;;;;;;;19.51;36.09;96495.66;4991643;28;20085;-76
2021/09/22 10:21:23;;;;;;;5.05;3.80;;;;;;;19.25;36.55;96501.22;4993120;28;20396;-77
2021/09/22 10:23:51;;;;;;;3.50;3.08;;;;;;;19.90;37.27;96507.91;4987693;28;20043;-75
2021/09/22 10:26:17;;;;;;;3.95;3.65;;;;;;;20.64;34.99;96504.38;4974080;28;20027;-76
2021/09/22 10:28:45;;;;;;;4.55;3.90;;;;;;;19.85;35.80;96502.72;4993063;28;20018;-75
2021/09/22 10:31:21;;;;;;;4.40;3.97;;;;;;;20.30;35.01;96489.28;4973875;28;20055;-74
2021/09/22 10:33:47;;;;;;;4.78;4.30;;;;;;;19.37;37.13;96480.50;4979708;28;20033;-74
2021/09/22 10:36:15;;;;;;;4.95;4.45;;;;;;;19.64;36.99;96494.63;4981216;28;20456;-76
2021/09/22 10:38:44;;;;;;;5.05;4.65;;;;;;;19.86;36.81;96491.59;4991642;28;20113;-77
2021/09/22 10:41:22;;;;;;;5.15;4.63;;;;;;;21.13;35.14;96482.75;4990912;28;20389;-74
2021/09/22 10:43:47;;;;;;;5.00;4.50;;;;;;;19.22;39.44;96486.44;4993611;28;20097;-76
2021/09/22 10:46:18;;;;;;;8.57;4.65;;;;;;;19.61;39.37;96477.19;4993221;28;20068;-77
2021/09/22 10:49:04;;;;;;;5.00;4.60;;;;;;;19.15;39.03;96488.88;5011551;28;20077;-79
2021/09/22 10:51:33;;;;;;;5.68;5.18;;;;;;;21.07;35.38;96489.53;5012756;28;20057;-78
2021/09/22 10:54:21;;;;;;;4.82;4.43;;;;;;;21.44;34.94;96476.78;5012287;28;20069;-78
2021/09/22 10:56:54;;;;;;;6.20;5.05;;;;;;;21.71;34.82;96486.09;5012047;28;20081;-78
2021/09/22 10:59:39;;;;;;;5.78;5.20;;;;;;;22.14;34.33;96473.00;4996423;28;20038;-76
2021/09/22 11:02:09;;;;;;;5.15;4.65;;;;;;;22.90;33.47;96476.53;5001152;28;20069;-75
2021/09/22 11:04:58;;;;;;;19.95;5.22;;;;;;;21.61;35.05;96481.16;5010487;28;20041;-72
2021/09/22 11:07:52;;;;;;;6.00;5.45;;;;;;;19.94;38.52;96476.44;5010402;28;20034;-72
2021/09/22 11:10:32;;;;;;;5.93;5.43;;;;;;;20.34;38.24;96468.56;5009587;28;20046;-72
2021/09/22 11:13:19;;;;;;;6.32;5.72;;;;;;;21.58;35.85;96475.63;5007851;28;20030;-72
2021/09/22 11:15:55;;;;;;;5.93;5.53;;;;;;;22.61;34.39;96467.66;4984376;28;20161;-72
2021/09/22 11:18:23;;;;;;;6.97;6.38;;;;;;;22.60;33.95;96455.22;4990228;28;20050;-72
2021/09/22 11:21:06;;;;;;;7.88;6.95;;;;;;;22.69;33.41;96466.69;4995340;28;20228;-72